Time;durP1;ratioP1;P1;durP2;ratioP2;P2;SDS_P1;SDS_P2;PMS_P1;PMS_P2;Temp;Humidity;BMP_temperature;BMP_pressure;BME280_temperature;BME280_humidity;BME280_pressure;Samples;Min_cycle;Max_cycle;Signal;HPM_P1;HPM_P2
2023/04/11 00:00:52;;;;;;;15.13;9.20;;;;;;;;;;5093078;28;20450;-74
2023/04/11 00:03:21;;;;;;;9.67;6.97;;;;;;;;;;5092799;28;20446;-74
2023/04/11 00:05:48;;;;;;;10.43;8.30;;;;;;;;;;5092651;28;20458;-74
2023/04/11 00:08:15;;;;;;;10.33;7.47;;;;;;;;;;5095588;28;20454;-74
2023/04/11 00:10:42;;;;;;;9.37;7.40;;;;;;;;;;5097108;28;20904;-74
2023/04/11 00:13:09;;;;;;;9.87;6.67;;;;;;;;;;5096477;28;20482;-74
2023/04/11 00:15:38;;;;;;;10.30;7.33;;;;;;;;;;5096876;28;20956;-74
2023/04/11 00:18:05;;;;;;;10.50;7.70;;;;;;;;;;5096735;28;21005;-74
2023/04/11 00:20:34;;;;;;;10.53;6.90;;;;;;;;;;5096590;28;20936;-74
2023/04/11 00:23:01;;;;;;;13.00;7.40;;;;;;;;;;5096516;28;20962;-74
2023/04/11 00:25:28;;;;;;;7.60;6.13;;;;;;;;;;5096553;28;20973;-74
2023/04/11 00:27:55;;;;;;;8.23;6.63;;;;;;;;;;5096518;28;20489;-74
2023/04/11 00:30:22;;;;;;;11.00;7.20;;;;;;;;;;5096068;28;20858;-74
2023/04/11 00:32:49;;;;;;;12.27;7.23;;;;;;;;;;5096138;28;20481;-74
2023/04/11 00:35:17;;;;;;;11.67;7.50;;;;;;;;;;5095884;28;20451;-74
2023/04/11 00:37:45;;;;;;;11.30;7.27;;;;;;;;;;5096178;28;20469;-74
2023/04/11 00:40:16;;;;;;;10.97;8.10;;;;;;;;;;5096039;28;20450;-74
2023/04/11 00:42:43;;;;;;;12.37;7.17;;;;;;;;;;5095738;28;20506;-73
2023/04/11 00:45:11;;;;;;;10.23;6.57;;;;;;;;;;5095804;28;20468;-76
2023/04/11 00:47:38;;;;;;;8.30;6.60;;;;;;;;;;5096066;28;20457;-73
2023/04/11 00:50:05;;;;;;;8.67;6.23;;;;;;;;;;5095699;28;20486;-73
2023/04/11 00:52:33;;;;;;;9.70;6.70;;;;;;;;;;5095533;28;20994;-73
2023/04/11 00:55:02;;;;;;;10.80;6.20;;;;;;;;;;5095181;28;20451;-73
2023/04/11 00:57:31;;;;;;;8.80;6.67;;;;;;;;;;5095553;28;20844;-73
2023/04/11 00:59:58;;;;;;;9.20;6.67;;;;;;;;;;5095699;28;20856;-73
2023/04/11 01:02:25;;;;;;;9.00;6.30;;;;;;;;;;5095255;28;20475;-73
2023/04/11 01:04:52;;;;;;;7.27;5.47;;;;;;;;;;5095319;28;20529;-73
2023/04/11 01:07:20;;;;;;;11.57;6.90;;;;;;;;;;5095611;28;20458;-77
2023/04/11 01:09:47;;;;;;;11.80;7.87;;;;;;;;;;5095740;28;20489;-76
2023/04/11 01:12:16;;;;;;;8.70;6.33;;;;;;;;;;5095535;28;21006;-76
2023/04/11 01:14:46;;;;;;;9.57;7.30;;;;;;;;;;5095331;28;20461;-76
2023/04/11 01:17:13;;;;;;;10.67;6.63;;;;;;;;;;5095734;28;20496;-76
2023/04/11 01:19:40;;;;;;;12.37;7.60;;;;;;;;;;5095014;28;20954;-77
2023/04/11 01:22:08;;;;;;;10.30;6.50;;;;;;;;;;5095035;28;20475;-77
2023/04/11 01:24:37;;;;;;;10.17;6.67;;;;;;;;;;5095527;28;20947;-77
2023/04/11 01:27:04;;;;;;;8.77;5.77;;;;;;;;;;5095449;28;20935;-77
2023/04/11 01:29:31;;;;;;;6.90;5.70;;;;;;;;;;5095435;28;20486;-77
2023/04/11 01:31:58;;;;;;;8.50;5.60;;;;;;;;;;5094945;28;20950;-72
2023/04/11 01:34:27;;;;;;;7.00;4.47;;;;;;;;;;5094579;28;20459;-73
2023/04/11 01:36:54;;;;;;;8.77;4.67;;;;;;;;;;5094848;28;20880;-73
2023/04/11 01:39:21;;;;;;;6.57;5.07;;;;;;;;;;5094816;28;20534;-73
2023/04/11 01:41:50;;;;;;;9.00;5.70;;;;;;;;;;5094462;28;20467;-73
2023/04/11 01:44:19;;;;;;;6.30;5.10;;;;;;;;;;5094434;28;20465;-73
2023/04/11 01:46:46;;;;;;;7.27;4.87;;;;;;;;;;5094777;28;20466;-73
2023/04/11 01:49:15;;;;;;;7.77;4.97;;;;;;;;;;5094542;28;21006;-73
2023/04/11 01:51:42;;;;;;;4.97;4.00;;;;;;;;;;5094434;28;20528;-73
2023/04/11 01:54:09;;;;;;;7.23;4.63;;;;;;;;;;5093972;28;20545;-73
2023/04/11 01:56:36;;;;;;;4.70;3.87;;;;;;;;;;5094508;28;20454;-73
2023/04/11 01:59:05;;;;;;;7.30;5.67;;;;;;;;;;5094510;28;20462;-73
2023/04/11 02:01:32;;;;;;;5.97;4.40;;;;;;;;;;5094201;28;20470;-74
2023/04/11 02:04:00;;;;;;;5.10;3.70;;;;;;;;;;5094159;28;20829;-73
2023/04/11 02:06:27;;;;;;;6.83;4.40;;;;;;;;;;5094194;28;20459;-73
2023/04/11 02:08:54;;;;;;;7.13;4.50;;;;;;;;;;5093981;28;20450;-73
2023/04/11 02:11:22;;;;;;;4.47;3.97;;;;;;;;;;5094059;28;20467;-73
2023/04/11 02:13:49;;;;;;;7.60;4.20;;;;;;;;;;5094140;28;20447;-73
2023/04/11 02:16:19;;;;;;;5.97;3.53;;;;;;;;;;5094129;28;20439;-73
2023/04/11 02:18:46;;;;;;;4.50;3.73;;;;;;;;;;5093992;28;20462;-73
2023/04/11 02:21:13;;;;;;;4.77;3.87;;;;;;;;;;5093863;28;20465;-73
2023/04/11 02:23:40;;;;;;;4.37;3.97;;;;;;;;;;5093921;28;20542;-73
2023/04/11 02:26:08;;;;;;;4.40;3.87;;;;;;;;;;5093945;28;20800;-73
2023/04/11 02:28:35;;;;;;;7.47;4.63;;;;;;;;;;5093887;28;20447;-73
2023/04/11 02:31:02;;;;;;;6.27;4.70;;;;;;;;;;5093764;28;20901;-73
2023/04/11 02:33:31;;;;;;;6.77;5.00;;;;;;;;;;5093419;28;20454;-74
2023/04/11 02:35:58;;;;;;;5.43;4.20;;;;;;;;;;5093895;28;21011;-73
2023/04/11 02:38:25;;;;;;;6.63;5.20;;;;;;;;;;5093630;28;20461;-73
2023/04/11 02:40:52;;;;;;;8.80;5.00;;;;;;;;;;5093644;28;20447;-73
2023/04/11 02:43:20;;;;;;;7.40;5.23;;;;;;;;;;5093256;28;20447;-73
2023/04/11 02:45:47;;;;;;;9.73;5.57;;;;;;;;;;5093574;28;20455;-73
2023/04/11 02:48:16;;;;;;;7.40;4.77;;;;;;;;;;5093724;28;20459;-76
2023/04/11 02:50:45;;;;;;;4.77;4.27;;;;;;;;;;5093868;28;20486;-73
2023/04/11 02:53:13;;;;;;;5.97;4.53;;;;;;;;;;5093637;28;20478;-75
2023/04/11 02:55:42;;;;;;;8.67;4.90;;;;;;;;;;5093355;28;20465;-75
2023/04/11 02:58:09;;;;;;;8.43;5.37;;;;;;;;;;5093696;28;20462;-74
2023/04/11 03:00:37;;;;;;;7.83;5.80;;;;;;;;;;5093616;28;20960;-74
2023/04/11 03:03:06;;;;;;;8.33;4.87;;;;;;;;;;5093307;28;20471;-74
2023/04/11 03:05:33;;;;;;;6.70;4.20;;;;;;;;;;5093114;28;21111;-74
2023/04/11 03:08:01;;;;;;;6.13;5.23;;;;;;;;;;5093309;28;20453;-74
2023/04/11 03:10:28;;;;;;;5.97;4.67;;;;;;;;;;5093133;28;20514;-75
2023/04/11 03:12:55;;;;;;;9.17;4.90;;;;;;;;;;5093439;28;20987;-74
2023/04/11 03:15:22;;;;;;;6.60;4.10;;;;;;;;;;5092896;28;20465;-75
2023/04/11 03:17:51;;;;;;;4.90;3.93;;;;;;;;;;5093487;28;20468;-74
2023/04/11 03:20:20;;;;;;;5.00;3.87;;;;;;;;;;5093338;28;20446;-73
2023/04/11 03:22:48;;;;;;;5.20;3.80;;;;;;;;;;5093631;28;20475;-73
2023/04/11 03:25:16;;;;;;;5.67;4.13;;;;;;;;;;5093302;28;20831;-73
2023/04/11 03:27:44;;;;;;;5.50;4.27;;;;;;;;;;5093329;28;20451;-73
2023/04/11 03:30:11;;;;;;;6.20;4.27;;;;;;;;;;5093169;28;20573;-73
2023/04/11 03:32:38;;;;;;;7.80;5.17;;;;;;;;;;5093175;28;20471;-73
2023/04/11 03:35:06;;;;;;;7.50;4.60;;;;;;;;;;5092885;28;20811;-73
2023/04/11 03:37:33;;;;;;;5.37;3.93;;;;;;;;;;5093695;28;20821;-74
2023/04/11 03:40:00;;;;;;;7.77;5.77;;;;;;;;;;5092942;28;20458;-74
2023/04/11 03:42:30;;;;;;;6.13;4.73;;;;;;;;;;5094267;28;20478;-73
2023/04/11 03:44:57;;;;;;;6.73;4.87;;;;;;;;;;5096954;28;20459;-73
2023/04/11 03:47:25;;;;;;;10.60;5.53;;;;;;;;;;5097055;28;20456;-73
2023/04/11 03:49:52;;;;;;;7.20;4.63;;;;;;;;;;5097346;28;20477;-76
2023/04/11 03:52:19;;;;;;;6.43;4.37;;;;;;;;;;5097351;28;20471;-76
2023/04/11 03:54:48;;;;;;;7.73;5.40;;;;;;;;;;5097090;28;20482;-76
2023/04/11 03:57:15;;;;;;;6.17;4.60;;;;;;;;;;5097247;28;20427;-76
2023/04/11 03:59:46;;;;;;;9.27;4.37;;;;;;;;;;5097335;28;20435;-76
2023/04/11 04:02:13;;;;;;;6.30;4.80;;;;;;;;;;5097100;28;20484;-76
2023/04/11 04:04:42;;;;;;;15.53;4.70;;;;;;;;;;5096879;28;20519;-75
2023/04/11 04:07:09;;;;;;;7.87;5.67;;;;;;;;;;5097002;28;20511;-76
2023/04/11 04:09:37;;;;;;;43.20;24.47;;;;;;;;;;5096578;28;20454;-76
2023/04/11 04:12:04;;;;;;;36.10;23.00;;;;;;;;;;5096676;28;20505;-76
2023/04/11 04:14:31;;;;;;;37.07;20.10;;;;;;;;;;5096639;28;20486;-76
2023/04/11 04:16:59;;;;;;;21.73;12.80;;;;;;;;;;5096822;28;20473;-76
2023/04/11 04:19:27;;;;;;;13.90;9.20;;;;;;;;;;5097206;28;20811;-76
2023/04/11 04:21:56;;;;;;;19.57;12.73;;;;;;;;;;5096426;28;20474;-76
2023/04/11 04:24:25;;;;;;;21.70;14.00;;;;;;;;;;5096423;28;20446;-75
2023/04/11 04:26:56;;;;;;;22.83;15.20;;;;;;;;;;5096970;28;20845;-75
2023/04/11 04:29:32;;;;;;;24.10;15.10;;;;;;;;;;5096687;28;20442;-75
2023/04/11 04:32:01;;;;;;;23.63;14.17;;;;;;;;;;5096552;28;20461;-75
2023/04/11 04:34:29;;;;;;;19.43;12.60;;;;;;;;;;5096407;28;20839;-75
2023/04/11 04:36:58;;;;;;;16.47;10.23;;;;;;;;;;5096429;28;20442;-76
2023/04/11 04:39:28;;;;;;;13.00;9.40;;;;;;;;;;5096524;28;20447;-76
2023/04/11 04:41:57;;;;;;;12.70;9.10;;;;;;;;;;5096281;28;20501;-76
2023/04/11 04:44:25;;;;;;;10.07;5.90;;;;;;;;;;5096900;28;21010;-76
2023/04/11 04:46:53;;;;;;;13.80;8.73;;;;;;;;;;5096195;28;20530;-76
2023/04/11 04:49:22;;;;;;;19.90;12.40;;;;;;;;;;5096254;28;20810;-75
2023/04/11 04:51:49;;;;;;;15.97;9.43;;;;;;;;;;5096026;28;20577;-75
2023/04/11 04:54:18;;;;;;;9.10;6.60;;;;;;;;;;5094988;28;20450;-75
2023/04/11 04:56:46;;;;;;;6.93;5.60;;;;;;;;;;5096096;28;20457;-76
2023/04/11 04:59:15;;;;;;;8.17;6.60;;;;;;;;;;5095873;28;20459;-76
2023/04/11 05:01:43;;;;;;;9.40;6.40;;;;;;;;;;5096017;28;20479;-76
2023/04/11 05:04:10;;;;;;;9.70;7.30;;;;;;;;;;5095694;28;20461;-76
2023/04/11 05:06:38;;;;;;;20.37;14.30;;;;;;;;;;5095832;28;20447;-76
2023/04/11 05:09:05;;;;;;;12.13;7.13;;;;;;;;;;5096057;28;20473;-75
2023/04/11 05:11:33;;;;;;;11.20;7.70;;;;;;;;;;5095627;28;20487;-76
2023/04/11 05:14:00;;;;;;;11.17;8.47;;;;;;;;;;5095706;28;20515;-76
2023/04/11 05:16:27;;;;;;;13.83;8.67;;;;;;;;;;5095281;28;20455;-76
2023/04/11 05:18:54;;;;;;;11.73;8.97;;;;;;;;;;5095594;28;20456;-76
2023/04/11 05:21:22;;;;;;;12.23;9.43;;;;;;;;;;5095650;28;20477;-76
2023/04/11 05:23:50;;;;;;;15.33;9.03;;;;;;;;;;5095442;28;20454;-76
2023/04/11 05:26:17;;;;;;;11.50;8.00;;;;;;;;;;5095479;28;20451;-76
2023/04/11 05:28:44;;;;;;;7.70;6.60;;;;;;;;;;5095166;28;20451;-76
2023/04/11 05:31:12;;;;;;;9.70;6.77;;;;;;;;;;5095287;28;20498;-76
2023/04/11 05:33:39;;;;;;;12.47;8.40;;;;;;;;;;5095526;28;20940;-76
2023/04/11 05:36:07;;;;;;;32.70;19.50;;;;;;;;;;5094879;28;20451;-75
2023/04/11 05:38:34;;;;;;;11.23;7.83;;;;;;;;;;5095180;28;20450;-75
2023/04/11 05:41:02;;;;;;;9.50;6.97;;;;;;;;;;5095103;28;20453;-76
2023/04/11 05:43:30;;;;;;;12.23;6.67;;;;;;;;;;5094974;28;20944;-74
2023/04/11 05:45:57;;;;;;;12.07;6.97;;;;;;;;;;5094734;28;20481;-75
2023/04/11 05:48:24;;;;;;;10.73;5.83;;;;;;;;;;5095009;28;20461;-74
2023/04/11 05:50:52;;;;;;;15.27;10.27;;;;;;;;;;5094764;28;20518;-74
2023/04/11 05:53:20;;;;;;;10.57;8.23;;;;;;;;;;5094664;28;20447;-75
2023/04/11 05:55:51;;;;;;;11.10;6.57;;;;;;;;;;5094643;28;20508;-75
2023/04/11 05:58:20;;;;;;;11.37;7.43;;;;;;;;;;5094766;28;20431;-75
2023/04/11 06:00:48;;;;;;;9.13;7.27;;;;;;;;;;5094613;28;20476;-75
2023/04/11 06:03:15;;;;;;;13.03;7.57;;;;;;;;;;5094521;28;20465;-75
2023/04/11 06:05:42;;;;;;;11.27;7.33;;;;;;;;;;5094539;28;20943;-75
2023/04/11 06:08:10;;;;;;;14.10;7.07;;;;;;;;;;5094734;28;20912;-75
2023/04/11 06:10:38;;;;;;;9.20;7.40;;;;;;;;;;5094613;28;20565;-75
2023/04/11 06:13:05;;;;;;;7.40;5.70;;;;;;;;;;5094280;28;20466;-75
2023/04/11 06:15:33;;;;;;;6.23;5.30;;;;;;;;;;5094798;28;20447;-75
2023/04/11 06:18:00;;;;;;;5.23;4.23;;;;;;;;;;5094504;28;20446;-75
2023/04/11 06:20:28;;;;;;;8.33;6.43;;;;;;;;;;5094508;28;20440;-74
2023/04/11 06:22:55;;;;;;;6.37;5.47;;;;;;;;;;5093970;28;20470;-75
2023/04/11 06:25:23;;;;;;;4.13;3.70;;;;;;;;;;5094380;28;20463;-75
2023/04/11 06:27:51;;;;;;;4.93;3.87;;;;;;;;;;5094060;28;20454;-75
2023/04/11 06:30:18;;;;;;;4.83;4.03;;;;;;;;;;5094180;28;20467;-73
2023/04/11 06:32:46;;;;;;;7.30;4.93;;;;;;;;;;5094112;28;20470;-75
2023/04/11 06:35:13;;;;;;;6.10;4.23;;;;;;;;;;5093669;28;20457;-75
2023/04/11 06:37:42;;;;;;;6.07;4.93;;;;;;;;;;5094210;28;20832;-75
2023/04/11 06:40:09;;;;;;;6.83;4.63;;;;;;;;;;5093755;28;20450;-76
2023/04/11 06:42:38;;;;;;;5.60;3.63;;;;;;;;;;5093706;28;20474;-74
2023/04/11 06:45:05;;;;;;;8.13;4.83;;;;;;;;;;5093618;28;20467;-74
2023/04/11 06:47:32;;;;;;;9.30;6.00;;;;;;;;;;5093899;28;20935;-74
2023/04/11 06:50:01;;;;;;;6.13;5.53;;;;;;;;;;5093404;28;20459;-74
2023/04/11 06:52:29;;;;;;;6.83;4.80;;;;;;;;;;5093200;28;20490;-74
2023/04/11 06:54:56;;;;;;;9.57;4.80;;;;;;;;;;5099278;28;21022;-74
2023/04/11 06:57:23;;;;;;;7.23;4.90;;;;;;;;;;5113654;28;20453;-76
2023/04/11 06:59:50;;;;;;;5.53;4.30;;;;;;;;;;5114211;28;20448;-74
2023/04/11 07:02:18;;;;;;;5.93;3.97;;;;;;;;;;5114194;28;20989;-74
2023/04/11 07:04:45;;;;;;;8.77;4.97;;;;;;;;;;5113262;28;20473;-74
2023/04/11 07:07:13;;;;;;;7.67;5.10;;;;;;;;;;5113801;28;20880;-74
2023/04/11 07:09:42;;;;;;;6.30;4.13;;;;;;;;;;5112396;28;20962;-76
2023/04/11 07:12:09;;;;;;;6.23;3.80;;;;;;;;;;5105164;28;20492;-74
2023/04/11 07:14:36;;;;;;;6.87;3.80;;;;;;;;;;5112566;28;20465;-74
2023/04/11 07:17:03;;;;;;;8.03;4.67;;;;;;;;;;5112206;28;20795;-74
2023/04/11 07:19:30;;;;;;;6.13;4.40;;;;;;;;;;5112916;28;20442;-74
2023/04/11 07:21:58;;;;;;;5.10;4.00;;;;;;;;;;5112419;28;20469;-74
2023/04/11 07:24:29;;;;;;;6.43;4.50;;;;;;;;;;5112924;28;20962;-74
2023/04/11 07:26:57;;;;;;;4.77;3.50;;;;;;;;;;5112722;28;20469;-74
2023/04/11 07:29:24;;;;;;;5.33;3.30;;;;;;;;;;5112825;28;20449;-74
2023/04/11 07:31:51;;;;;;;5.83;3.87;;;;;;;;;;5113652;28;20904;-73
2023/04/11 07:34:19;;;;;;;4.50;3.10;;;;;;;;;;5113404;28;20453;-74
2023/04/11 07:36:46;;;;;;;5.20;3.17;;;;;;;;;;5113750;28;21026;-74
2023/04/11 07:39:14;;;;;;;13.53;7.70;;;;;;;;;;5113750;28;20481;-74
2023/04/11 07:41:43;;;;;;;15.70;6.27;;;;;;;;;;5113307;28;20565;-74
2023/04/11 07:44:10;;;;;;;5.40;4.10;;;;;;;;;;5113291;28;20458;-74
2023/04/11 07:46:37;;;;;;;5.40;3.60;;;;;;;;;;5113637;28;20464;-74
2023/04/11 07:49:05;;;;;;;4.23;3.37;;;;;;;;;;5113539;28;20434;-74
2023/04/11 07:51:32;;;;;;;5.30;4.30;;;;;;;;;;5113589;28;20857;-74
2023/04/11 07:53:59;;;;;;;4.43;3.40;;;;;;;;;;5113356;28;20438;-74
2023/04/11 07:56:26;;;;;;;6.90;4.20;;;;;;;;;;5113382;28;20461;-74
2023/04/11 07:58:55;;;;;;;3.43;2.87;;;;;;;;;;5113354;28;20804;-74
2023/04/11 08:01:24;;;;;;;4.67;3.40;;;;;;;;;;5113662;28;20942;-74
2023/04/11 08:03:52;;;;;;;4.23;2.90;;;;;;;;;;5113369;28;20453;-74
2023/04/11 08:06:19;;;;;;;4.20;2.77;;;;;;;;;;5113403;28;20821;-74
2023/04/11 08:08:46;;;;;;;7.20;4.50;;;;;;;;;;5113228;28;20446;-74
2023/04/11 08:11:14;;;;;;;4.57;3.87;;;;;;;;;;5113161;28;20492;-74
2023/04/11 08:13:41;;;;;;;5.40;3.00;;;;;;;;;;5113451;28;20458;-74
2023/04/11 08:16:13;;;;;;;3.73;2.60;;;;;;;;;;5113148;28;20426;-74
2023/04/11 08:18:41;;;;;;;3.70;2.70;;;;;;;;;;5113072;28;20836;-74
2023/04/11 08:21:10;;;;;;;2.63;2.10;;;;;;;;;;5112858;28;20449;-74
2023/04/11 08:23:40;;;;;;;3.57;2.73;;;;;;;;;;5112798;28;20503;-75
2023/04/11 08:26:08;;;;;;;4.33;3.07;;;;;;;;;;5113013;28;20438;-74
2023/04/11 08:28:35;;;;;;;4.87;3.20;;;;;;;;;;5114717;28;21021;-74
2023/04/11 08:31:02;;;;;;;3.13;2.57;;;;;;;;;;5116130;28;20464;-74
2023/04/11 08:33:31;;;;;;;5.23;3.03;;;;;;;;;;5116893;28;20851;-75
2023/04/11 08:35:58;;;;;;;3.03;2.73;;;;;;;;;;5117618;28;20456;-74
2023/04/11 08:38:25;;;;;;;5.23;2.87;;;;;;;;;;5116519;28;20819;-74
2023/04/11 08:40:52;;;;;;;3.10;2.67;;;;;;;;;;5116557;28;20911;-74
2023/04/11 08:43:20;;;;;;;3.60;2.93;;;;;;;;;;5116143;28;20460;-73
2023/04/11 08:45:47;;;;;;;2.30;2.00;;;;;;;;;;5116572;28;20786;-74
2023/04/11 08:48:14;;;;;;;2.80;2.57;;;;;;;;;;5116126;27;20449;-74
2023/04/11 08:50:44;;;;;;;3.57;2.20;;;;;;;;;;5116306;28;20816;-74
2023/04/11 08:53:12;;;;;;;3.43;2.77;;;;;;;;;;5116408;28;20855;-74
2023/04/11 08:55:45;;;;;;;4.00;2.40;;;;;;;;;;5115998;28;20446;-74
2023/04/11 08:58:13;;;;;;;4.30;2.70;;;;;;;;;;5115795;28;20442;-74
2023/04/11 09:00:40;;;;;;;3.00;2.10;;;;;;;;;;5115826;28;20473;-74
2023/04/11 09:03:09;;;;;;;2.83;2.30;;;;;;;;;;5114224;28;20473;-75
2023/04/11 09:05:37;;;;;;;2.70;1.97;;;;;;;;;;5115303;28;20498;-75
2023/04/11 09:08:07;;;;;;;8.40;1.73;;;;;;;;;;5115241;28;20529;-75
2023/04/11 09:10:34;;;;;;;2.00;1.57;;;;;;;;;;5115118;28;20453;-74
2023/04/11 09:13:02;;;;;;;2.10;1.70;;;;;;;;;;5114602;28;20496;-74
2023/04/11 09:15:30;;;;;;;5.50;2.10;;;;;;;;;;5114809;28;20445;-74
2023/04/11 09:17:57;;;;;;;3.10;2.80;;;;;;;;;;5114480;28;20552;-74
2023/04/11 09:20:26;;;;;;;4.03;2.10;;;;;;;;;;5114209;28;20450;-74
2023/04/11 09:22:53;;;;;;;2.83;1.67;;;;;;;;;;5114639;28;20474;-74
2023/04/11 09:25:22;;;;;;;6.17;2.50;;;;;;;;;;5115114;28;20542;-74
2023/04/11 09:27:50;;;;;;;2.40;2.20;;;;;;;;;;5114342;28;20445;-74
2023/04/11 09:30:24;;;;;;;2.50;2.20;;;;;;;;;;5114110;28;20461;-74
2023/04/11 09:32:52;;;;;;;2.57;2.23;;;;;;;;;;5113938;28;20485;-74
2023/04/11 09:35:21;;;;;;;2.70;2.17;;;;;;;;;;5113821;28;20449;-74
2023/04/11 09:37:49;;;;;;;3.30;2.37;;;;;;;;;;5114232;28;20449;-74
2023/04/11 09:40:17;;;;;;;2.47;1.80;;;;;;;;;;5113775;28;20550;-74
2023/04/11 09:42:47;;;;;;;2.30;1.97;;;;;;;;;;5094596;28;20482;-74
2023/04/11 09:45:18;;;;;;;2.90;2.40;;;;;;;;;;5094846;28;20469;-74
2023/04/11 09:47:45;;;;;;;2.63;1.93;;;;;;;;;;5094714;28;20504;-74
2023/04/11 09:50:12;;;;;;;5.73;3.90;;;;;;;;;;5094711;28;20455;-74
2023/04/11 09:52:41;;;;;;;2.37;1.90;;;;;;;;;;5095090;28;20490;-74
2023/04/11 09:55:10;;;;;;;2.07;1.53;;;;;;;;;;5094335;28;20487;-74
2023/04/11 09:57:39;;;;;;;4.17;1.40;;;;;;;;;;5094719;28;20780;-74
2023/04/11 10:00:14;;;;;;;1.90;1.47;;;;;;;;;;5094876;28;20864;-74
2023/04/11 10:02:41;;;;;;;2.43;2.20;;;;;;;;;;5094566;28;21054;-74
2023/04/11 10:05:09;;;;;;;1.70;1.50;;;;;;;;;;5094616;28;20944;-74
2023/04/11 10:07:37;;;;;;;2.73;2.07;;;;;;;;;;5094324;28;20462;-74
2023/04/11 10:10:05;;;;;;;3.47;2.40;;;;;;;;;;5094565;28;20816;-74
2023/04/11 10:12:32;;;;;;;2.77;1.90;;;;;;;;;;5093955;28;20491;-73
2023/04/11 10:15:07;;;;;;;2.00;1.70;;;;;;;;;;5094291;28;20975;-72
2023/04/11 10:17:36;;;;;;;2.20;2.00;;;;;;;;;;5093985;28;20450;-72
2023/04/11 10:20:23;;;;;;;3.43;2.83;;;;;;;;;;5093923;28;20896;-73
2023/04/11 10:23:00;;;;;;;3.27;2.10;;;;;;;;;;5093683;28;20470;-72
2023/04/11 10:25:28;;;;;;;1.90;1.70;;;;;;;;;;5093994;28;20458;-72
2023/04/11 10:27:59;;;;;;;2.90;1.70;;;;;;;;;;5093836;28;20454;-72
2023/04/11 10:30:41;;;;;;;3.80;2.10;;;;;;;;;;5093933;28;20455;-72
2023/04/11 10:33:14;;;;;;;3.53;2.40;;;;;;;;;;5093512;28;20486;-72
2023/04/11 10:35:56;;;;;;;2.83;2.30;;;;;;;;;;5093578;28;20537;-72
2023/04/11 10:38:42;;;;;;;2.80;1.97;;;;;;;;;;5093739;28;20476;-72
2023/04/11 10:41:16;;;;;;;4.83;2.07;;;;;;;;;;5093420;28;20504;-72
2023/04/11 10:43:44;;;;;;;2.53;1.63;;;;;;;;;;5093366;28;20482;-72
2023/04/11 10:46:17;;;;;;;7.03;2.00;;;;;;;;;;5093645;28;20806;-72
2023/04/11 10:48:58;;;;;;;2.00;1.63;;;;;;;;;;5093593;28;20447;-72
2023/04/11 10:51:26;;;;;;;5.67;3.80;;;;;;;;;;5092707;28;20462;-72
2023/04/11 10:53:54;;;;;;;2.57;1.77;;;;;;;;;;5092750;28;20608;-72
2023/04/11 10:56:36;;;;;;;2.50;2.07;;;;;;;;;;5093329;28;20536;-72
2023/04/11 10:59:03;;;;;;;4.40;2.70;;;;;;;;;;5080697;28;20455;-72
2023/04/11 11:01:31;;;;;;;5.10;2.20;;;;;;;;;;5093662;28;20484;-72
2023/04/11 11:04:00;;;;;;;13.23;7.90;;;;;;;;;;5093197;28;20542;-72
2023/04/11 11:06:28;;;;;;;3.40;2.73;;;;;;;;;;5093187;28;20455;-72
2023/04/11 11:08:55;;;;;;;3.57;1.90;;;;;;;;;;5103009;28;20482;-72
2023/04/11 11:11:22;;;;;;;22.47;11.40;;;;;;;;;;5112960;28;20465;-72
2023/04/11 11:13:51;;;;;;;3.07;2.23;;;;;;;;;;5113088;28;21002;-72
2023/04/11 11:16:19;;;;;;;5.00;2.77;;;;;;;;;;5113429;28;20465;-71
2023/04/11 11:18:47;;;;;;;6.23;2.23;;;;;;;;;;5113524;28;20449;-71
2023/04/11 11:21:18;;;;;;;2.60;2.23;;;;;;;;;;5113400;28;20473;-71
2023/04/11 11:23:55;;;;;;;3.73;2.00;;;;;;;;;;5113348;28;20449;-72
2023/04/11 11:26:23;;;;;;;2.13;1.83;;;;;;;;;;5113199;28;20828;-71
2023/04/11 11:28:50;;;;;;;3.70;2.53;;;;;;;;;;5113234;28;20462;-71
2023/04/11 11:31:17;;;;;;;7.27;4.00;;;;;;;;;;5113100;28;20473;-71
2023/04/11 11:33:44;;;;;;;3.73;2.17;;;;;;;;;;5113130;28;20490;-72
2023/04/11 11:36:12;;;;;;;3.77;2.57;;;;;;;;;;5113288;28;20830;-71
2023/04/11 11:38:41;;;;;;;4.77;2.20;;;;;;;;;;5113315;28;20451;-71
2023/04/11 11:41:08;;;;;;;3.10;1.97;;;;;;;;;;5113720;28;20457;-71
2023/04/11 11:43:38;;;;;;;5.83;2.53;;;;;;;;;;5113361;28;21040;-72
2023/04/11 11:46:09;;;;;;;5.03;2.00;;;;;;;;;;5113646;28;20454;-71
2023/04/11 11:48:37;;;;;;;2.63;1.70;;;;;;;;;;5113823;28;20544;-71
2023/04/11 11:51:04;;;;;;;3.80;2.13;;;;;;;;;;5113655;28;20514;-71
2023/04/11 11:53:31;;;;;;;4.00;1.83;;;;;;;;;;5113043;28;20491;-71
2023/04/11 11:56:00;;;;;;;5.30;3.47;;;;;;;;;;5113076;28;20943;-71
2023/04/11 11:58:27;;;;;;;2.27;1.43;;;;;;;;;;5112987;28;20453;-71
2023/04/11 12:00:54;;;;;;;3.07;2.20;;;;;;;;;;5113116;28;20452;-71
2023/04/11 12:03:22;;;;;;;2.60;2.20;;;;;;;;;;5114288;28;20493;-71
2023/04/11 12:05:51;;;;;;;5.33;2.10;;;;;;;;;;5116817;28;20877;-71
2023/04/11 12:08:20;;;;;;;2.40;1.80;;;;;;;;;;5116874;28;20888;-71
2023/04/11 12:10:48;;;;;;;5.63;1.87;;;;;;;;;;5117063;28;20453;-71
2023/04/11 12:13:18;;;;;;;2.73;1.90;;;;;;;;;;5116767;28;20491;-71
2023/04/11 12:15:46;;;;;;;3.17;1.53;;;;;;;;;;5116840;27;20938;-71
2023/04/11 12:18:13;;;;;;;3.50;1.83;;;;;;;;;;5116726;28;20967;-71
2023/04/11 12:20:40;;;;;;;4.50;1.47;;;;;;;;;;5117043;28;20456;-73
2023/04/11 12:23:08;;;;;;;3.30;1.60;;;;;;;;;;5117498;28;20557;-73
2023/04/11 12:25:35;;;;;;;3.40;1.83;;;;;;;;;;5117483;28;20449;-74
2023/04/11 12:28:02;;;;;;;3.60;1.70;;;;;;;;;;5117302;28;20449;-73
2023/04/11 12:30:31;;;;;;;3.37;1.80;;;;;;;;;;5117264;28;20437;-73
2023/04/11 12:32:58;;;;;;;2.53;1.43;;;;;;;;;;5117305;28;20500;-73
2023/04/11 12:35:25;;;;;;;2.63;1.63;;;;;;;;;;5117431;28;20817;-73
2023/04/11 12:37:52;;;;;;;3.10;1.40;;;;;;;;;;5117555;28;20452;-73
2023/04/11 12:40:19;;;;;;;6.27;1.60;;;;;;;;;;5117654;28;20436;-73
2023/04/11 12:42:47;;;;;;;6.83;1.70;;;;;;;;;;5117301;28;20465;-73
2023/04/11 12:45:15;;;;;;;2.50;1.60;;;;;;;;;;5116939;28;20462;-74
2023/04/11 12:47:43;;;;;;;2.00;1.40;;;;;;;;;;5116823;27;20457;-73
2023/04/11 12:50:11;;;;;;;3.07;1.53;;;;;;;;;;5117328;28;20446;-74
2023/04/11 12:52:38;;;;;;;3.30;1.87;;;;;;;;;;5116616;28;20496;-73
2023/04/11 12:55:06;;;;;;;2.40;1.47;;;;;;;;;;5116679;27;20470;-74
2023/04/11 12:57:33;;;;;;;2.23;1.50;;;;;;;;;;5116940;28;20445;-74
2023/04/11 13:00:04;;;;;;;1.80;1.50;;;;;;;;;;5116817;28;20438;-72
2023/04/11 13:02:31;;;;;;;1.70;1.27;;;;;;;;;;5115803;28;20474;-72
2023/04/11 13:05:05;;;;;;;3.43;1.47;;;;;;;;;;5116156;28;20461;-71
2023/04/11 13:07:33;;;;;;;2.23;1.27;;;;;;;;;;5115964;28;20456;-71
2023/04/11 13:10:01;;;;;;;4.23;1.53;;;;;;;;;;5115980;28;20450;-72
2023/04/11 13:12:28;;;;;;;2.10;1.23;;;;;;;;;;5115756;28;20527;-74
2023/04/11 13:14:56;;;;;;;2.47;1.20;;;;;;;;;;5114917;28;20464;-73
2023/04/11 13:17:24;;;;;;;1.97;1.30;;;;;;;;;;5116383;28;20560;-75
2023/04/11 13:19:51;;;;;;;3.10;1.30;;;;;;;;;;5115872;28;20445;-72
2023/04/11 13:22:20;;;;;;;1.43;1.10;;;;;;;;;;5116288;28;20514;-75
2023/04/11 13:24:47;;;;;;;4.07;1.73;;;;;;;;;;5115688;28;20456;-73
2023/04/11 13:27:15;;;;;;;3.07;1.60;;;;;;;;;;5115291;28;20473;-73
2023/04/11 13:29:42;;;;;;;2.43;1.70;;;;;;;;;;5115735;28;20486;-74
2023/04/11 13:32:09;;;;;;;5.50;1.63;;;;;;;;;;5115649;28;20846;-73
2023/04/11 13:34:37;;;;;;;1.70;1.27;;;;;;;;;;5115470;28;20485;-73
2023/04/11 13:37:04;;;;;;;4.67;1.83;;;;;;;;;;5115425;28;20458;-73
2023/04/11 13:39:33;;;;;;;2.40;1.30;;;;;;;;;;5115419;28;20462;-73
2023/04/11 13:42:00;;;;;;;4.30;1.67;;;;;;;;;;5115267;28;20485;-73
2023/04/11 13:44:27;;;;;;;2.10;1.60;;;;;;;;;;5115272;28;20942;-74
2023/04/11 13:46:55;;;;;;;2.30;1.70;;;;;;;;;;5115543;28;20445;-74
2023/04/11 13:49:22;;;;;;;2.37;1.40;;;;;;;;;;5115187;28;20542;-73
2023/04/11 13:51:49;;;;;;;2.03;1.40;;;;;;;;;;5114904;28;21069;-73
2023/04/11 13:54:16;;;;;;;4.83;2.03;;;;;;;;;;5114108;28;20894;-73
2023/04/11 13:56:44;;;;;;;2.80;1.20;;;;;;;;;;5114873;28;20458;-74
2023/04/11 13:59:12;;;;;;;3.30;1.77;;;;;;;;;;5114994;28;20450;-73
2023/04/11 14:01:39;;;;;;;2.60;1.70;;;;;;;;;;5114758;28;20584;-73
2023/04/11 14:04:06;;;;;;;2.50;2.00;;;;;;;;;;5114583;28;20805;-73
2023/04/11 14:06:34;;;;;;;3.30;2.30;;;;;;;;;;5114586;28;20971;-73
2023/04/11 14:09:03;;;;;;;5.40;2.30;;;;;;;;;;5114437;28;20458;-73
2023/04/11 14:11:30;;;;;;;4.57;2.33;;;;;;;;;;5114642;28;20530;-73
2023/04/11 14:13:59;;;;;;;3.43;2.10;;;;;;;;;;5114364;28;20586;-73
2023/04/11 14:16:26;;;;;;;3.67;2.10;;;;;;;;;;5114448;28;20824;-73
2023/04/11 14:18:53;;;;;;;4.60;1.60;;;;;;;;;;5114419;28;20464;-73
2023/04/11 14:21:20;;;;;;;4.87;2.57;;;;;;;;;;5114263;28;20469;-74
2023/04/11 14:23:49;;;;;;;1.90;1.70;;;;;;;;;;5114826;28;20446;-74
2023/04/11 14:26:16;;;;;;;5.30;1.70;;;;;;;;;;5114426;28;20830;-71
2023/04/11 14:28:44;;;;;;;3.30;1.57;;;;;;;;;;5114657;28;20562;-76
2023/04/11 14:31:12;;;;;;;3.47;1.90;;;;;;;;;;5114706;28;20561;-73
2023/04/11 14:33:39;;;;;;;4.50;2.60;;;;;;;;;;5114430;27;20481;-74
2023/04/11 14:36:07;;;;;;;4.90;2.07;;;;;;;;;;5114153;28;20942;-72
2023/04/11 14:38:34;;;;;;;8.13;3.60;;;;;;;;;;5114204;28;20454;-72
2023/04/11 14:41:01;;;;;;;4.20;3.00;;;;;;;;;;5114168;28;20445;-72
2023/04/11 14:43:28;;;;;;;4.50;1.77;;;;;;;;;;5113805;28;21000;-73
2023/04/11 14:45:56;;;;;;;6.50;1.83;;;;;;;;;;5114050;28;20445;-72